sensor_id;sensor_type;location;lat;lon;timestamp;pressure;altitude;pressure_sealevel;temperature;humidity
27144;BME280;14672;50.250;8.312;2024-03-06T00:01:53;98914.59;;;8.69;70.37
27144;BME280;14672;50.250;8.312;2024-03-06T00:04:19;98928.13;;;8.62;69.79
27144;BME280;14672;50.250;8.312;2024-03-06T00:06:45;98928.75;;;8.53;70.14
27144;BME280;14672;50.250;8.312;2024-03-06T00:09:10;98932.75;;;8.56;70.63
27144;BME280;14672;50.250;8.312;2024-03-06T00:11:37;98937.34;;;8.49;70.05
27144;BME280;14672;50.250;8.312;2024-03-06T00:14:03;98939.75;;;8.35;70.05
27144;BME280;14672;50.250;8.312;2024-03-06T00:16:34;98953.19;;;8.31;70.78
27144;BME280;14672;50.250;8.312;2024-03-06T00:18:59;98951.97;;;8.32;70.37
27144;BME280;14672;50.250;8.312;2024-03-06T00:21:25;98957.75;;;8.25;70.77
27144;BME280;14672;50.250;8.312;2024-03-06T00:23:51;98961.22;;;8.32;70.69
27144;BME280;14672;50.250;8.312;2024-03-06T00:26:17;98958.06;;;8.30;71.00
27144;BME280;14672;50.250;8.312;2024-03-06T00:28:42;98963.31;;;8.28;71.57
27144;BME280;14672;50.250;8.312;2024-03-06T00:31:08;98971.31;;;8.33;70.95
27144;BME280;14672;50.250;8.312;2024-03-06T00:33:34;98966.03;;;8.35;71.25
27144;BME280;14672;50.250;8.312;2024-03-06T00:36:00;98973.16;;;8.24;71.75
27144;BME280;14672;50.250;8.312;2024-03-06T00:38:26;98972.34;;;8.23;71.32
27144;BME280;14672;50.250;8.312;2024-03-06T00:40:51;98974.00;;;8.21;71.55
27144;BME280;14672;50.250;8.312;2024-03-06T00:43:17;98975.97;;;8.24;72.05
27144;BME280;14672;50.250;8.312;2024-03-06T00:45:43;98979.16;;;8.26;71.45
27144;BME280;14672;50.250;8.312;2024-03-06T00:48:09;98977.66;;;8.21;71.22
27144;BME280;14672;50.250;8.312;2024-03-06T00:50:35;98977.13;;;8.26;71.64
27144;BME280;14672;50.250;8.312;2024-03-06T00:53:01;98971.31;;;8.33;70.79
27144;BME280;14672;50.250;8.312;2024-03-06T00:55:27;98974.28;;;8.26;71.29
27144;BME280;14672;50.250;8.312;2024-03-06T00:57:52;98985.41;;;8.17;70.52
27144;BME280;14672;50.250;8.312;2024-03-06T01:00:19;98970.13;;;8.15;70.90
27144;BME280;14672;50.250;8.312;2024-03-06T01:02:45;98980.47;;;8.21;70.30
27144;BME280;14672;50.250;8.312;2024-03-06T01:05:11;98980.66;;;8.14;71.02
27144;BME280;14672;50.250;8.312;2024-03-06T01:07:40;98980.72;;;8.11;70.36
27144;BME280;14672;50.250;8.312;2024-03-06T01:10:07;98983.28;;;8.05;70.51
27144;BME280;14672;50.250;8.312;2024-03-06T01:12:33;98977.78;;;7.98;70.76
27144;BME280;14672;50.250;8.312;2024-03-06T01:14:59;98985.31;;;8.04;71.06
27144;BME280;14672;50.250;8.312;2024-03-06T01:17:25;98987.88;;;7.99;69.80
27144;BME280;14672;50.250;8.312;2024-03-06T01:19:51;98987.50;;;7.97;69.94
27144;BME280;14672;50.250;8.312;2024-03-06T01:22:18;98991.00;;;7.85;69.37
27144;BME280;14672;50.250;8.312;2024-03-06T01:24:44;98991.69;;;7.73;70.30
27144;BME280;14672;50.250;8.312;2024-03-06T01:27:10;98983.81;;;7.80;69.93
27144;BME280;14672;50.250;8.312;2024-03-06T01:29:36;98980.50;;;7.85;69.51
27144;BME280;14672;50.250;8.312;2024-03-06T01:32:02;98986.47;;;7.71;69.82
27144;BME280;14672;50.250;8.312;2024-03-06T01:34:28;98976.31;;;7.74;70.40
27144;BME280;14672;50.250;8.312;2024-03-06T01:36:53;98974.91;;;7.82;69.27
27144;BME280;14672;50.250;8.312;2024-03-06T01:39:19;98976.91;;;7.65;69.21
27144;BME280;14672;50.250;8.312;2024-03-06T01:41:50;98979.28;;;7.67;69.90
27144;BME280;14672;50.250;8.312;2024-03-06T01:44:18;98990.84;;;7.56;69.41
27144;BME280;14672;50.250;8.312;2024-03-06T01:46:45;98994.97;;;7.51;68.54
27144;BME280;14672;50.250;8.312;2024-03-06T01:49:12;98996.78;;;7.42;68.72
27144;BME280;14672;50.250;8.312;2024-03-06T01:51:45;98994.81;;;7.39;68.79
27144;BME280;14672;50.250;8.312;2024-03-06T01:54:14;99000.91;;;7.37;69.44
27144;BME280;14672;50.250;8.312;2024-03-06T01:56:46;98998.84;;;7.18;67.98
27144;BME280;14672;50.250;8.312;2024-03-06T01:59:21;99003.34;;;7.16;68.09
27144;BME280;14672;50.250;8.312;2024-03-06T02:01:53;99003.03;;;7.10;69.27
27144;BME280;14672;50.250;8.312;2024-03-06T02:04:19;99001.34;;;7.16;69.31
27144;BME280;14672;50.250;8.312;2024-03-06T02:06:46;99000.44;;;6.99;69.00
27144;BME280;14672;50.250;8.312;2024-03-06T02:09:12;99011.81;;;6.96;69.03
27144;BME280;14672;50.250;8.312;2024-03-06T02:11:40;99010.19;;;6.95;68.69
27144;BME280;14672;50.250;8.312;2024-03-06T02:14:07;99014.00;;;6.85;68.28
27144;BME280;14672;50.250;8.312;2024-03-06T02:16:36;99009.94;;;6.86;68.40
27144;BME280;14672;50.250;8.312;2024-03-06T02:19:02;99014.84;;;6.82;68.49
27144;BME280;14672;50.250;8.312;2024-03-06T02:21:28;99015.78;;;6.75;68.73
27144;BME280;14672;50.250;8.312;2024-03-06T02:23:54;99011.06;;;6.69;68.49
27144;BME280;14672;50.250;8.312;2024-03-06T02:26:21;99023.59;;;6.68;68.81
27144;BME280;14672;50.250;8.312;2024-03-06T02:28:52;99016.75;;;6.65;68.80
27144;BME280;14672;50.250;8.312;2024-03-06T02:31:21;99024.06;;;6.63;68.83
27144;BME280;14672;50.250;8.312;2024-03-06T02:33:48;99028.91;;;6.62;68.47
27144;BME280;14672;50.250;8.312;2024-03-06T02:36:14;99026.63;;;6.53;68.86
27144;BME280;14672;50.250;8.312;2024-03-06T02:38:41;99033.47;;;6.56;68.38
27144;BME280;14672;50.250;8.312;2024-03-06T02:41:07;99015.53;;;6.43;69.12
27144;BME280;14672;50.250;8.312;2024-03-06T02:43:34;99018.53;;;6.55;68.97
27144;BME280;14672;50.250;8.312;2024-03-06T02:45:59;99029.91;;;6.52;68.85
27144;BME280;14672;50.250;8.312;2024-03-06T02:48:25;99024.38;;;6.45;68.89
27144;BME280;14672;50.250;8.312;2024-03-06T02:50:51;99029.97;;;6.48;69.66
27144;BME280;14672;50.250;8.312;2024-03-06T02:53:17;99026.63;;;6.53;69.84
27144;BME280;14672;50.250;8.312;2024-03-06T02:55:43;99016.81;;;6.61;68.70
27144;BME280;14672;50.250;8.312;2024-03-06T02:58:09;99019.50;;;6.45;69.31
27144;BME280;14672;50.250;8.312;2024-03-06T03:00:34;99014.19;;;6.51;69.16
27144;BME280;14672;50.250;8.312;2024-03-06T03:03:00;99029.03;;;6.55;69.38
27144;BME280;14672;50.250;8.312;2024-03-06T03:05:26;99025.41;;;6.54;69.80
27144;BME280;14672;50.250;8.312;2024-03-06T03:07:51;99021.50;;;6.48;70.63
27144;BME280;14672;50.250;8.312;2024-03-06T03:10:18;99022.97;;;6.56;69.89
27144;BME280;14672;50.250;8.312;2024-03-06T03:12:44;99023.31;;;6.58;70.20
27144;BME280;14672;50.250;8.312;2024-03-06T03:15:10;99028.22;;;6.54;70.34
27144;BME280;14672;50.250;8.312;2024-03-06T03:17:36;99020.97;;;6.53;70.26
27144;BME280;14672;50.250;8.312;2024-03-06T03:20:03;99036.38;;;6.49;70.81
27144;BME280;14672;50.250;8.312;2024-03-06T03:22:40;99034.84;;;6.44;70.42
27144;BME280;14672;50.250;8.312;2024-03-06T03:25:10;99029.09;;;6.51;70.50
27144;BME280;14672;50.250;8.312;2024-03-06T03:27:38;99033.00;;;6.57;70.12
27144;BME280;14672;50.250;8.312;2024-03-06T03:30:08;99027.31;;;6.61;69.92
27144;BME280;14672;50.250;8.312;2024-03-06T03:32:35;99030.38;;;6.47;70.07
27144;BME280;14672;50.250;8.312;2024-03-06T03:35:00;99036.44;;;6.45;70.12
27144;BME280;14672;50.250;8.312;2024-03-06T03:37:26;99030.03;;;6.41;70.10
27144;BME280;14672;50.250;8.312;2024-03-06T03:39:52;99037.25;;;6.46;70.35
27144;BME280;14672;50.250;8.312;2024-03-06T03:42:18;99038.84;;;6.47;69.86
27144;BME280;14672;50.250;8.312;2024-03-06T03:44:44;99041.47;;;6.57;69.78
27144;BME280;14672;50.250;8.312;2024-03-06T03:47:10;99040.88;;;6.46;69.37
27144;BME280;14672;50.250;8.312;2024-03-06T03:49:36;99049.72;;;6.48;69.06
27144;BME280;14672;50.250;8.312;2024-03-06T03:52:02;99045.75;;;6.42;69.67
27144;BME280;14672;50.250;8.312;2024-03-06T03:54:28;99044.97;;;6.42;69.42
27144;BME280;14672;50.250;8.312;2024-03-06T03:56:54;99045.47;;;6.37;69.45
27144;BME280;14672;50.250;8.312;2024-03-06T03:59:20;99049.06;;;6.37;69.64
27144;BME280;14672;50.250;8.312;2024-03-06T04:01:46;99047.78;;;6.42;69.29
27144;BME280;14672;50.250;8.312;2024-03-06T04:04:14;99055.56;;;6.34;69.59
27144;BME280;14672;50.250;8.312;2024-03-06T04:06:40;99061.53;;;6.40;68.94
27144;BME280;14672;50.250;8.312;2024-03-06T04:09:06;99058.50;;;6.27;70.01
27144;BME280;14672;50.250;8.312;2024-03-06T04:11:31;99060.63;;;6.46;69.89
27144;BME280;14672;50.250;8.312;2024-03-06T04:14:01;99065.63;;;6.35;69.08
27144;BME280;14672;50.250;8.312;2024-03-06T04:16:27;99064.13;;;6.27;69.90
27144;BME280;14672;50.250;8.312;2024-03-06T04:18:53;99071.22;;;6.39;69.67
27144;BME280;14672;50.250;8.312;2024-03-06T04:21:18;99062.69;;;6.42;69.74
27144;BME280;14672;50.250;8.312;2024-03-06T04:23:44;99066.44;;;6.36;69.54
27144;BME280;14672;50.250;8.312;2024-03-06T04:26:10;99072.75;;;6.43;69.50
27144;BME280;14672;50.250;8.312;2024-03-06T04:28:36;99071.31;;;6.32;69.36
27144;BME280;14672;50.250;8.312;2024-03-06T04:31:01;99077.78;;;6.32;70.80
27144;BME280;14672;50.250;8.312;2024-03-06T04:33:27;99073.69;;;6.33;71.09
27144;BME280;14672;50.250;8.312;2024-03-06T04:35:53;99075.03;;;6.25;70.54
27144;BME280;14672;50.250;8.312;2024-03-06T04:38:19;99074.56;;;6.30;70.64
27144;BME280;14672;50.250;8.312;2024-03-06T04:40:44;99076.44;;;6.40;70.44
27144;BME280;14672;50.250;8.312;2024-03-06T04:43:10;99078.88;;;6.38;70.59
27144;BME280;14672;50.250;8.312;2024-03-06T04:45:36;99075.25;;;6.38;70.53
27144;BME280;14672;50.250;8.312;2024-03-06T04:48:02;99087.03;;;6.33;70.55
27144;BME280;14672;50.250;8.312;2024-03-06T04:50:28;99090.63;;;6.33;70.38
27144;BME280;14672;50.250;8.312;2024-03-06T04:52:54;99092.25;;;6.34;70.74
27144;BME280;14672;50.250;8.312;2024-03-06T04:55:21;99097.88;;;6.34;70.77
27144;BME280;14672;50.250;8.312;2024-03-06T04:57:48;99092.69;;;6.33;70.68
27144;BME280;14672;50.250;8.312;2024-03-06T05:00:15;99096.28;;;6.33;69.98
27144;BME280;14672;50.250;8.312;2024-03-06T05:02:41;99102.41;;;6.28;70.07
27144;BME280;14672;50.250;8.312;2024-03-06T05:05:08;99102.41;;;6.28;70.85
27144;BME280;14672;50.250;8.312;2024-03-06T05:07:34;99101.28;;;6.22;70.41
27144;BME280;14672;50.250;8.312;2024-03-06T05:10:00;99107.31;;;6.24;70.20
27144;BME280;14672;50.250;8.312;2024-03-06T05:12:27;99113.41;;;6.19;69.82
27144;BME280;14672;50.250;8.312;2024-03-06T05:14:54;99116.97;;;6.23;69.93
27144;BME280;14672;50.250;8.312;2024-03-06T05:17:20;99124.31;;;6.17;69.39
27144;BME280;14672;50.250;8.312;2024-03-06T05:19:47;99111.81;;;6.18;70.01
27144;BME280;14672;50.250;8.312;2024-03-06T05:22:15;99114.69;;;6.14;69.89
27144;BME280;14672;50.250;8.312;2024-03-06T05:24:44;99121.88;;;6.19;70.34
27144;BME280;14672;50.250;8.312;2024-03-06T05:27:10;99122.28;;;6.18;69.72
27144;BME280;14672;50.250;8.312;2024-03-06T05:29:39;99128.78;;;6.14;70.21
27144;BME280;14672;50.250;8.312;2024-03-06T05:32:05;99128.78;;;6.14;69.79
27144;BME280;14672;50.250;8.312;2024-03-06T05:34:33;99134.06;;;6.12;70.10
27144;BME280;14672;50.250;8.312;2024-03-06T05:36:59;99141.22;;;6.17;70.41
27144;BME280;14672;50.250;8.312;2024-03-06T05:39:27;99144.06;;;6.17;70.10
27144;BME280;14672;50.250;8.312;2024-03-06T05:42:05;99145.50;;;6.32;69.93
27144;BME280;14672;50.250;8.312;2024-03-06T05:44:32;99153.66;;;6.23;70.20
27144;BME280;14672;50.250;8.312;2024-03-06T05:47:00;99149.28;;;6.19;69.82
27144;BME280;14672;50.250;8.312;2024-03-06T05:49:27;99156.69;;;6.09;70.27
27144;BME280;14672;50.250;8.312;2024-03-06T05:51:54;99155.34;;;6.17;70.12
27144;BME280;14672;50.250;8.312;2024-03-06T05:54:21;99157.00;;;6.14;69.92
27144;BME280;14672;50.250;8.312;2024-03-06T05:56:51;99163.56;;;6.04;70.20
27144;BME280;14672;50.250;8.312;2024-03-06T05:59:18;99158.75;;;6.05;70.07
27144;BME280;14672;50.250;8.312;2024-03-06T06:01:44;99165.09;;;6.12;70.46
27144;BME280;14672;50.250;8.312;2024-03-06T06:04:11;99163.09;;;6.09;69.52
27144;BME280;14672;50.250;8.312;2024-03-06T06:06:37;99163.19;;;6.02;70.33
27144;BME280;14672;50.250;8.312;2024-03-06T06:09:04;99161.81;;;6.14;69.89
27144;BME280;14672;50.250;8.312;2024-03-06T06:11:33;99169.50;;;6.13;70.00
27144;BME280;14672;50.250;8.312;2024-03-06T06:13:59;99176.81;;;6.07;70.18
27144;BME280;14672;50.250;8.312;2024-03-06T06:16:25;99187.25;;;6.10;70.50
27144;BME280;14672;50.250;8.312;2024-03-06T06:18:52;99182.13;;;6.02;69.79
27144;BME280;14672;50.250;8.312;2024-03-06T06:21:18;99182.06;;;6.09;70.38
27144;BME280;14672;50.250;8.312;2024-03-06T06:23:44;99188.16;;;6.04;69.72
27144;BME280;14672;50.250;8.312;2024-03-06T06:26:10;99189.81;;;5.98;70.81
27144;BME280;14672;50.250;8.312;2024-03-06T06:28:37;99199.81;;;6.06;69.71
27144;BME280;14672;50.250;8.312;2024-03-06T06:31:04;99195.94;;;5.93;69.42
27144;BME280;14672;50.250;8.312;2024-03-06T06:33:32;99196.75;;;5.90;69.85
27144;BME280;14672;50.250;8.312;2024-03-06T06:35:58;99203.16;;;5.94;70.10
27144;BME280;14672;50.250;8.312;2024-03-06T06:38:23;99203.47;;;6.03;70.47
27144;BME280;14672;50.250;8.312;2024-03-06T06:40:49;99203.91;;;5.98;71.14
27144;BME280;14672;50.250;8.312;2024-03-06T06:43:16;99211.63;;;5.94;71.27
27144;BME280;14672;50.250;8.312;2024-03-06T06:45:42;99211.94;;;6.03;71.72
27144;BME280;14672;50.250;8.312;2024-03-06T06:48:08;99218.78;;;6.02;71.55
27144;BME280;14672;50.250;8.312;2024-03-06T06:50:35;99226.38;;;6.08;71.71
27144;BME280;14672;50.250;8.312;2024-03-06T06:53:01;99224.28;;;6.16;72.31
27144;BME280;14672;50.250;8.312;2024-03-06T06:55:27;99229.53;;;6.14;72.02
27144;BME280;14672;50.250;8.312;2024-03-06T06:57:53;99234.25;;;6.24;72.13
27144;BME280;14672;50.250;8.312;2024-03-06T07:00:19;99228.53;;;6.31;72.81
27144;BME280;14672;50.250;8.312;2024-03-06T07:02:47;99226.81;;;6.41;72.48
27144;BME280;14672;50.250;8.312;2024-03-06T07:05:13;99227.13;;;6.46;72.56
27144;BME280;14672;50.250;8.312;2024-03-06T07:07:39;99232.19;;;6.58;72.86
27144;BME280;14672;50.250;8.312;2024-03-06T07:10:05;99232.97;;;6.63;72.85
27144;BME280;14672;50.250;8.312;2024-03-06T07:12:31;99247.47;;;6.65;73.53
27144;BME280;14672;50.250;8.312;2024-03-06T07:14:58;99248.13;;;6.76;73.46
27144;BME280;14672;50.250;8.312;2024-03-06T07:17:25;99246.50;;;6.75;72.92
27144;BME280;14672;50.250;8.312;2024-03-06T07:19:51;99258.59;;;6.75;73.44
27144;BME280;14672;50.250;8.312;2024-03-06T07:22:19;99256.84;;;6.85;73.79
27144;BME280;14672;50.250;8.312;2024-03-06T07:24:44;99253.94;;;6.92;73.81
27144;BME280;14672;50.250;8.312;2024-03-06T07:27:10;99254.19;;;7.01;73.65
27144;BME280;14672;50.250;8.312;2024-03-06T07:29:36;99254.94;;;7.05;73.37
27144;BME280;14672;50.250;8.312;2024-03-06T07:32:03;99258.50;;;7.09;73.32
27144;BME280;14672;50.250;8.312;2024-03-06T07:34:31;99258.09;;;7.11;72.82
27144;BME280;14672;50.250;8.312;2024-03-06T07:36:58;99257.94;;;7.21;72.60
27144;BME280;14672;50.250;8.312;2024-03-06T07:39:25;99257.56;;;7.19;72.54
27144;BME280;14672;50.250;8.312;2024-03-06T07:41:52;99263.09;;;7.26;73.48
27144;BME280;14672;50.250;8.312;2024-03-06T07:44:18;99265.34;;;7.38;72.93
27144;BME280;14672;50.250;8.312;2024-03-06T07:46:44;99280.56;;;7.44;73.06
27144;BME280;14672;50.250;8.312;2024-03-06T07:49:09;99282.03;;;7.56;73.23
27144;BME280;14672;50.250;8.312;2024-03-06T07:51:35;99283.56;;;7.61;72.82
27144;BME280;14672;50.250;8.312;2024-03-06T07:54:04;99287.97;;;7.62;73.07
27144;BME280;14672;50.250;8.312;2024-03-06T07:56:30;99295.06;;;7.73;72.66
27144;BME280;14672;50.250;8.312;2024-03-06T07:58:56;99289.34;;;7.77;72.58
27144;BME280;14672;50.250;8.312;2024-03-06T08:01:22;99295.25;;;7.86;72.32
27144;BME280;14672;50.250;8.312;2024-03-06T08:03:49;99294.84;;;7.87;72.21
27144;BME280;14672;50.250;8.312;2024-03-06T08:06:15;99302.06;;;7.88;71.90
27144;BME280;14672;50.250;8.312;2024-03-06T08:08:43;99305.69;;;7.89;72.55
27144;BME280;14672;50.250;8.312;2024-03-06T08:11:11;99312.84;;;7.97;72.75
27144;BME280;14672;50.250;8.312;2024-03-06T08:13:37;99309.09;;;8.03;72.49
27144;BME280;14672;50.250;8.312;2024-03-06T08:16:06;99306.63;;;8.06;72.43
27144;BME280;14672;50.250;8.312;2024-03-06T08:18:34;99312.94;;;8.13;72.82
27144;BME280;14672;50.250;8.312;2024-03-06T08:21:01;99306.22;;;8.07;73.44
27144;BME280;14672;50.250;8.312;2024-03-06T08:23:27;99317.69;;;8.20;73.66
27144;BME280;14672;50.250;8.312;2024-03-06T08:25:54;99313.50;;;8.28;74.19
27144;BME280;14672;50.250;8.312;2024-03-06T08:28:21;99310.84;;;8.40;74.23
27144;BME280;14672;50.250;8.312;2024-03-06T08:30:47;99314.78;;;8.46;75.08
27144;BME280;14672;50.250;8.312;2024-03-06T08:33:13;99315.53;;;8.51;74.84
27144;BME280;14672;50.250;8.312;2024-03-06T08:35:39;99314.56;;;8.57;74.44
27144;BME280;14672;50.250;8.312;2024-03-06T08:38:05;99322.66;;;8.59;74.58
27144;BME280;14672;50.250;8.312;2024-03-06T08:40:32;99321.03;;;8.58;74.43
27144;BME280;14672;50.250;8.312;2024-03-06T08:42:58;99326.72;;;8.58;74.09
27144;BME280;14672;50.250;8.312;2024-03-06T08:45:24;99330.03;;;8.53;74.78
27144;BME280;14672;50.250;8.312;2024-03-06T08:47:50;99331.94;;;8.59;74.41
27144;BME280;14672;50.250;8.312;2024-03-06T08:50:20;99340.38;;;8.63;74.21
27144;BME280;14672;50.250;8.312;2024-03-06T08:52:46;99340.72;;;8.65;74.69
27144;BME280;14672;50.250;8.312;2024-03-06T08:55:12;99340.59;;;8.72;74.00
27144;BME280;14672;50.250;8.312;2024-03-06T08:57:39;99342.25;;;8.69;73.54
27144;BME280;14672;50.250;8.312;2024-03-06T09:00:07;99339.81;;;8.71;73.77
27144;BME280;14672;50.250;8.312;2024-03-06T09:02:37;99339.81;;;8.71;73.67
27144;BME280;14672;50.250;8.312;2024-03-06T09:05:07;99339.28;;;8.76;73.78
27144;BME280;14672;50.250;8.312;2024-03-06T09:07:36;99340.31;;;8.86;73.70
27144;BME280;14672;50.250;8.312;2024-03-06T09:10:07;99351.72;;;8.82;74.99
27144;BME280;14672;50.250;8.312;2024-03-06T09:12:34;99345.09;;;8.89;73.95
27144;BME280;14672;50.250;8.312;2024-03-06T09:15:01;99344.75;;;8.87;73.54
27144;BME280;14672;50.250;8.312;2024-03-06T09:17:28;99348.88;;;8.82;73.33
27144;BME280;14672;50.250;8.312;2024-03-06T09:19:54;99356.88;;;8.87;73.95
27144;BME280;14672;50.250;8.312;2024-03-06T09:22:22;99355.34;;;9.03;72.82
27144;BME280;14672;50.250;8.312;2024-03-06T09:24:48;99360.56;;;9.04;74.11
27144;BME280;14672;50.250;8.312;2024-03-06T09:27:15;99362.38;;;9.14;73.55
27144;BME280;14672;50.250;8.312;2024-03-06T09:29:42;99361.94;;;9.16;72.64
27144;BME280;14672;50.250;8.312;2024-03-06T09:32:09;99355.63;;;9.08;72.95
27144;BME280;14672;50.250;8.312;2024-03-06T09:34:35;99354.03;;;9.27;73.01
27144;BME280;14672;50.250;8.312;2024-03-06T09:37:02;99347.81;;;9.32;72.64
27144;BME280;14672;50.250;8.312;2024-03-06T09:39:30;99355.22;;;9.46;72.31
27144;BME280;14672;50.250;8.312;2024-03-06T09:41:56;99346.69;;;9.46;73.16
27144;BME280;14672;50.250;8.312;2024-03-06T09:44:22;99362.72;;;9.36;72.70
27144;BME280;14672;50.250;8.312;2024-03-06T09:46:50;99357.75;;;9.40;73.26
27144;BME280;14672;50.250;8.312;2024-03-06T09:49:18;99355.03;;;9.53;72.31
27144;BME280;14672;50.250;8.312;2024-03-06T09:51:47;99355.25;;;9.62;72.02
27144;BME280;14672;50.250;8.312;2024-03-06T09:54:16;99356.59;;;9.73;72.65
27144;BME280;14672;50.250;8.312;2024-03-06T09:56:44;99357.66;;;9.79;72.20
27144;BME280;14672;50.250;8.312;2024-03-06T09:59:12;99349.84;;;9.83;71.76
27144;BME280;14672;50.250;8.312;2024-03-06T10:02:01;99363.34;;;9.96;72.73
27144;BME280;14672;50.250;8.312;2024-03-06T10:04:33;99352.69;;;10.00;72.49
27144;BME280;14672;50.250;8.312;2024-03-06T10:07:00;99349.75;;;10.03;72.54
27144;BME280;14672;50.250;8.312;2024-03-06T10:09:28;99349.94;;;10.12;71.87
27144;BME280;14672;50.250;8.312;2024-03-06T10:11:55;99351.56;;;10.13;71.03
27144;BME280;14672;50.250;8.312;2024-03-06T10:14:23;99351.06;;;10.18;71.43
27144;BME280;14672;50.250;8.312;2024-03-06T10:17:01;99351.66;;;10.26;72.08
27144;BME280;14672;50.250;8.312;2024-03-06T10:19:29;99356.00;;;10.30;71.58
27144;BME280;14672;50.250;8.312;2024-03-06T10:21:56;99351.66;;;10.26;70.75
27144;BME280;14672;50.250;8.312;2024-03-06T10:24:28;99351.56;;;10.29;70.82
27144;BME280;14672;50.250;8.312;2024-03-06T10:26:58;99358.25;;;10.23;71.08
27144;BME280;14672;50.250;8.312;2024-03-06T10:29:27;99358.69;;;10.21;70.02
27144;BME280;14672;50.250;8.312;2024-03-06T10:31:58;99356.53;;;10.25;70.46
27144;BME280;14672;50.250;8.312;2024-03-06T10:34:28;99365.78;;;10.29;70.08
27144;BME280;14672;50.250;8.312;2024-03-06T10:36:59;99366.81;;;10.19;69.95
27144;BME280;14672;50.250;8.312;2024-03-06T10:39:25;99351.19;;;10.27;70.16
27144;BME280;14672;50.250;8.312;2024-03-06T10:41:54;99366.38;;;10.37;70.10
27144;BME280;14672;50.250;8.312;2024-03-06T10:44:27;99367.88;;;10.42;70.96
27144;BME280;14672;50.250;8.312;2024-03-06T10:46:59;99365.47;;;10.56;71.07
27144;BME280;14672;50.250;8.312;2024-03-06T10:49:28;99369.47;;;10.59;71.50
27144;BME280;14672;50.250;8.312;2024-03-06T10:52:03;99361.66;;;10.63;70.37
27144;BME280;14672;50.250;8.312;2024-03-06T10:54:34;99372.31;;;10.59;70.75
27144;BME280;14672;50.250;8.312;2024-03-06T10:57:08;99369.81;;;10.61;69.79
27144;BME280;14672;50.250;8.312;2024-03-06T10:59:35;99364.63;;;10.72;70.06
27144;BME280;14672;50.250;8.312;2024-03-06T11:02:01;99366.63;;;10.88;69.63
27144;BME280;14672;50.250;8.312;2024-03-06T11:04:29;99367.78;;;10.90;70.06
27144;BME280;14672;50.250;8.312;2024-03-06T11:06:57;99364.94;;;10.90;69.90
27144;BME280;14672;50.250;8.312;2024-03-06T11:09:34;99362.59;;;11.01;69.56
27144;BME280;14672;50.250;8.312;2024-03-06T11:12:01;99366.28;;;11.14;69.53
27144;BME280;14672;50.250;8.312;2024-03-06T11:14:30;99356.72;;;11.21;69.06
27144;BME280;14672;50.250;8.312;2024-03-06T11:17:10;99358.56;;;11.27;70.09
27144;BME280;14672;50.250;8.312;2024-03-06T11:23:01;99349.94;;;11.56;69.33
27144;BME280;14672;50.250;8.312;2024-03-06T11:28:22;99343.44;;;12.32;68.37
27144;BME280;14672;50.250;8.312;2024-03-06T11:30:59;99343.56;;;12.28;68.05
27144;BME280;14672;50.250;8.312;2024-03-06T11:33:39;99351.53;;;12.67;67.69
27144;BME280;14672;50.250;8.312;2024-03-06T11:36:25;99350.22;;;13.15;66.23
27144;BME280;14672;50.250;8.312;2024-03-06T11:39:06;99355.50;;;13.48;65.93
27144;BME280;14672;50.250;8.312;2024-03-06T11:44:01;99344.44;;;14.39;62.21
27144;BME280;14672;50.250;8.312;2024-03-06T11:46:44;99336.53;;;14.61;61.32
27144;BME280;14672;50.250;8.312;2024-03-06T11:49:21;99338.59;;;15.06;60.49
27144;BME280;14672;50.250;8.312;2024-03-06T11:51:52;99338.72;;;15.48;59.21
27144;BME280;14672;50.250;8.312;2024-03-06T11:54:24;99335.50;;;15.46;58.55
27144;BME280;14672;50.250;8.312;2024-03-06T11:56:54;99339.47;;;15.67;58.48
27144;BME280;14672;50.250;8.312;2024-03-06T11:59:36;99335.28;;;15.17;59.20
27144;BME280;14672;50.250;8.312;2024-03-06T12:02:06;99336.19;;;15.23;59.53
27144;BME280;14672;50.250;8.312;2024-03-06T12:04:34;99335.84;;;15.39;58.71
27144;BME280;14672;50.250;8.312;2024-03-06T12:07:01;99341.28;;;15.10;59.22
27144;BME280;14672;50.250;8.312;2024-03-06T12:09:36;99332.03;;;15.42;58.52
27144;BME280;14672;50.250;8.312;2024-03-06T12:12:02;99321.81;;;15.68;58.08
27144;BME280;14672;50.250;8.312;2024-03-06T12:14:29;99327.91;;;15.34;58.62
27144;BME280;14672;50.250;8.312;2024-03-06T12:16:55;99326.94;;;15.37;58.80
27144;BME280;14672;50.250;8.312;2024-03-06T12:19:36;99327.28;;;15.30;58.56
27144;BME280;14672;50.250;8.312;2024-03-06T12:22:05;99326.22;;;15.00;57.76
27144;BME280;14672;50.250;8.312;2024-03-06T12:24:32;99331.16;;;14.99;57.67
27144;BME280;14672;50.250;8.312;2024-03-06T12:27:04;99325.88;;;14.89;57.54
27144;BME280;14672;50.250;8.312;2024-03-06T12:29:32;99329.88;;;14.91;57.57
27144;BME280;14672;50.250;8.312;2024-03-06T12:31:59;99320.16;;;14.89;57.45
27144;BME280;14672;50.250;8.312;2024-03-06T12:34:25;99333.69;;;14.88;57.69
27144;BME280;14672;50.250;8.312;2024-03-06T12:36:51;99331.00;;;14.76;57.83
27144;BME280;14672;50.250;8.312;2024-03-06T12:39:17;99331.78;;;14.76;58.01
27144;BME280;14672;50.250;8.312;2024-03-06T12:41:47;99327.31;;;14.66;57.02
27144;BME280;14672;50.250;8.312;2024-03-06T12:44:13;99323.69;;;14.56;56.50
27144;BME280;14672;50.250;8.312;2024-03-06T12:46:41;99330.50;;;14.59;56.24
27144;BME280;14672;50.250;8.312;2024-03-06T12:49:06;99331.78;;;14.67;57.18
27144;BME280;14672;50.250;8.312;2024-03-06T12:51:32;99323.66;;;14.66;57.91
27144;BME280;14672;50.250;8.312;2024-03-06T12:53:58;99321.94;;;14.68;57.13
27144;BME280;14672;50.250;8.312;2024-03-06T12:56:24;99319.88;;;14.69;54.80
27144;BME280;14672;50.250;8.312;2024-03-06T12:58:51;99315.88;;;14.57;54.44
27144;BME280;14672;50.250;8.312;2024-03-06T13:01:17;99313.66;;;14.52;54.22
27144;BME280;14672;50.250;8.312;2024-03-06T13:03:43;99325.59;;;14.60;53.78
27144;BME280;14672;50.250;8.312;2024-03-06T13:06:09;99316.81;;;14.54;53.87
27144;BME280;14672;50.250;8.312;2024-03-06T13:08:35;99318.72;;;14.57;54.31
27144;BME280;14672;50.250;8.312;2024-03-06T13:11:02;99324.47;;;14.48;53.86
27144;BME280;14672;50.250;8.312;2024-03-06T13:13:28;99323.34;;;14.54;53.46
27144;BME280;14672;50.250;8.312;2024-03-06T13:15:56;99320.16;;;14.62;53.91
27144;BME280;14672;50.250;8.312;2024-03-06T13:18:22;99311.75;;;14.67;54.25